Willkommen auf der Webseite des Flugplatzes Uetersen/Heist PDF Drucken E-Mail

 

Liebe Fliegerfreunde, liebe Gäste und Kunden des Flugplatzes Uetersen,

 

Herr Szaguhn steht mit seinem Tower-Restaurant wieder täglich außer Montags für Sie bereit.

 

 

 

 

Zufallsbild

Aktuelle Termine

Mo Di Mi Do Fr Sa So
25 26 27 28 29 30 1
2 3 4 5 6 7 8
9 10 11 12 13 14 15
16 17 18 19 20 21 22
23 24 25 26 27 28 29
30 31 1 2 3 4 5

Pilotenwetter

[source: ADDS]
METAR
EDDH 261220Z 27004KT 230V310 6000 -DZ FEW005 BKN007 14/13 Q1017 NOSIG =
TAF
TAF EDDH 261100Z 2612/2718 28005KT 4500 -DZ BKN004 BECMG 2612/2614 7000 BKN006 BECMG 2614/2616 SCT007 BKN012 TEMPO 2614/2620 SCT012 BKN015 PROB30 TEMPO 2616/2620 4500 -DZ BKN008 BECMG 2620/2622 VRB03KT 1500 BCFG BKN005 TEMPO 2620/2623 0800 FG BKN002 BECMG 2623/2701 0600 FG BKN002 TEMPO 2701/2706 0400 FG VV000 BECMG 2706/2709 03005KT 4500 BR BKN005 BECMG 2709/2712 9999 SCT010 =